Time;durP1;ratioP1;P1;durP2;ratioP2;P2;SDS_P1;SDS_P2;PMS_P1;PMS_P2;Temp;Humidity;BMP_temperature;BMP_pressure;BME280_temperature;BME280_humidity;BME280_pressure;Samples;Min_cycle;Max_cycle;Signal;HPM_P1;HPM_P2
2023/09/11 00:02:21;;;;;;;14.80;12.57;;;;;;;22.93;100.00;101349.00;5110895;28;20106;-37
2023/09/11 00:04:47;;;;;;;13.75;12.40;;;;;;;23.01;100.00;101353.81;5109915;28;20028;-37
2023/09/11 00:07:14;;;;;;;14.43;12.13;;;;;;;23.04;100.00;101356.00;5110817;28;20027;-37
2023/09/11 00:09:39;;;;;;;15.23;13.20;;;;;;;22.90;100.00;101352.38;5102558;28;20036;-37
2023/09/11 00:12:05;;;;;;;15.77;12.50;;;;;;;22.90;100.00;101350.44;5096823;28;20099;-37
2023/09/11 00:14:31;;;;;;;13.80;12.40;;;;;;;22.93;100.00;101341.53;5097013;28;20020;-37
2023/09/11 00:16:56;;;;;;;16.40;13.00;;;;;;;22.81;100.00;101336.47;5096151;28;20495;-37
2023/09/11 00:19:21;;;;;;;13.65;12.07;;;;;;;22.90;100.00;101350.44;5096473;28;20027;-37
2023/09/11 00:21:47;;;;;;;14.20;12.90;;;;;;;22.85;100.00;101342.22;5096690;28;20024;-37
2023/09/11 00:24:13;;;;;;;14.63;13.15;;;;;;;22.74;100.00;101344.31;5096939;28;20020;-36
2023/09/11 00:26:39;;;;;;;14.80;13.27;;;;;;;22.74;100.00;101341.56;5096846;28;20064;-37
2023/09/11 00:29:04;;;;;;;15.32;13.73;;;;;;;22.73;100.00;101341.84;5096467;28;20070;-37
2023/09/11 00:31:29;;;;;;;14.65;13.15;;;;;;;22.65;100.00;101342.56;5096716;28;20028;-36
2023/09/11 00:33:55;;;;;;;17.23;13.45;;;;;;;22.60;100.00;101341.50;5096126;28;20032;-37
2023/09/11 00:36:20;;;;;;;14.55;12.75;;;;;;;22.63;100.00;101334.56;5096166;28;20024;-37
2023/09/11 00:38:47;;;;;;;15.27;13.63;;;;;;;22.50;100.00;101338.91;5096289;28;20024;-37
2023/09/11 00:41:13;;;;;;;14.98;13.48;;;;;;;22.37;100.00;101325.88;5095978;28;20024;-37
2023/09/11 00:43:38;;;;;;;15.98;14.48;;;;;;;22.40;100.00;101339.06;5095948;28;20032;-37
2023/09/11 00:46:05;;;;;;;15.55;13.38;;;;;;;22.47;100.00;101335.94;5096443;28;20103;-37
2023/09/11 00:48:31;;;;;;;16.50;13.32;;;;;;;22.27;100.00;101329.59;5096106;28;20469;-37
2023/09/11 00:50:57;;;;;;;15.15;13.70;;;;;;;22.24;100.00;101327.44;5096068;28;20032;-37
2023/09/11 00:53:22;;;;;;;16.60;14.77;;;;;;;22.28;100.00;101334.00;5096349;28;20031;-37
2023/09/11 00:55:48;;;;;;;15.43;13.82;;;;;;;22.27;100.00;101329.59;5095762;28;20384;-37
2023/09/11 00:58:16;;;;;;;16.55;13.85;;;;;;;22.22;100.00;101321.41;5095910;28;20048;-37
2023/09/11 01:00:44;;;;;;;18.50;14.50;;;;;;;22.20;100.00;101336.59;5095312;28;20036;-37
2023/09/11 01:03:11;;;;;;;14.48;12.70;;;;;;;22.30;100.00;101326.28;5096169;28;20527;-37
2023/09/11 01:05:37;;;;;;;15.60;14.00;;;;;;;22.20;100.00;101331.09;5096028;28;20085;-37
2023/09/11 01:08:03;;;;;;;13.90;12.50;;;;;;;22.29;100.00;101321.03;5095742;28;20035;-37
2023/09/11 01:10:28;;;;;;;15.93;13.57;;;;;;;22.19;100.00;101324.75;5095452;28;20020;-37
2023/09/11 01:12:54;;;;;;;14.63;12.70;;;;;;;22.12;100.00;101323.50;5095389;28;20376;-37
2023/09/11 01:15:19;;;;;;;15.20;13.50;;;;;;;22.07;100.00;101319.66;5095264;28;20138;-37
2023/09/11 01:18:05;;;;;;;14.32;12.85;;;;;;;22.09;100.00;101311.91;5095580;28;20028;-37
2023/09/11 01:20:53;;;;;;;14.82;13.32;;;;;;;22.07;100.00;101318.84;5094169;28;20110;-37
2023/09/11 01:23:27;;;;;;;14.55;12.75;;;;;;;21.92;100.00;101316.31;5096327;28;20032;-37
2023/09/11 01:26:06;;;;;;;13.23;11.85;;;;;;;21.97;100.00;101314.31;5094862;28;20028;-37
2023/09/11 01:29:09;;;;;;;14.35;12.93;;;;;;;22.01;100.00;101325.53;5095963;28;20409;-37
2023/09/11 01:31:36;;;;;;;13.52;12.02;;;;;;;21.90;100.00;101332.28;5095734;28;20035;-37
2023/09/11 01:34:03;;;;;;;13.27;11.80;;;;;;;21.86;100.00;101321.03;5095292;28;20093;-37
2023/09/11 01:36:29;;;;;;;15.27;12.77;;;;;;;21.85;100.00;101328.47;5095177;28;20024;-37
2023/09/11 01:38:55;;;;;;;14.00;12.50;;;;;;;21.76;100.00;101327.50;5095358;28;20555;-37
2023/09/11 01:41:26;;;;;;;13.50;10.07;;;;;;;21.79;100.00;101321.41;5095104;28;20031;-37
2023/09/11 01:43:54;;;;;;;13.43;11.68;;;;;;;21.72;100.00;101320.97;5095656;28;20046;-36
2023/09/11 01:46:19;;;;;;;15.15;11.57;;;;;;;21.75;100.00;101325.88;5093466;28;20028;-36
2023/09/11 01:48:46;;;;;;;12.75;10.93;;;;;;;21.67;100.00;101321.03;5094976;28;20058;-37
2023/09/11 01:51:13;;;;;;;14.35;12.00;;;;;;;21.58;100.00;101314.53;5094318;28;20464;-37
2023/09/11 01:53:40;;;;;;;13.50;12.13;;;;;;;21.60;100.00;101323.31;5094345;28;20032;-37
2023/09/11 01:56:06;;;;;;;13.27;11.82;;;;;;;21.53;100.00;101312.66;5094498;28;20372;-37
2023/09/11 01:58:32;;;;;;;13.00;11.73;;;;;;;21.60;100.00;101317.78;5094645;28;20069;-37
2023/09/11 02:00:57;;;;;;;12.45;11.10;;;;;;;21.54;100.00;101316.22;5094486;28;20414;-37
2023/09/11 02:03:23;;;;;;;16.13;11.65;;;;;;;21.58;100.00;101314.53;5094732;28;20074;-37
2023/09/11 02:05:48;;;;;;;13.00;11.70;;;;;;;21.51;100.00;101311.28;5094676;28;20123;-37
2023/09/11 02:08:13;;;;;;;11.57;10.50;;;;;;;21.58;100.00;101311.78;5094656;28;20115;-37
2023/09/11 02:10:39;;;;;;;13.95;11.32;;;;;;;21.50;100.00;101306.91;5094618;28;20024;-37
2023/09/11 02:13:04;;;;;;;14.48;11.27;;;;;;;21.48;100.00;101309.16;5094297;28;20031;-37
2023/09/11 02:15:30;;;;;;;13.00;11.48;;;;;;;21.38;100.00;101310.09;5094994;28;20025;-37
2023/09/11 02:17:55;;;;;;;12.85;11.55;;;;;;;21.28;100.00;101293.66;5094164;28;20468;-37
2023/09/11 02:20:20;;;;;;;13.57;11.38;;;;;;;21.27;100.00;101301.06;5094476;28;20027;-37
2023/09/11 02:22:45;;;;;;;11.52;9.73;;;;;;;21.39;100.00;101300.72;5094397;28;20039;-37
2023/09/11 02:25:11;;;;;;;12.65;10.73;;;;;;;21.36;100.00;101308.72;5094871;28;20028;-37
2023/09/11 02:27:36;;;;;;;11.80;10.60;;;;;;;21.30;100.00;101292.28;5094337;28;20111;-37
2023/09/11 02:30:02;;;;;;;14.60;11.38;;;;;;;21.27;100.00;101289.25;5094578;28;20056;-37
2023/09/11 02:32:27;;;;;;;13.20;11.73;;;;;;;21.23;100.00;101288.22;5093980;28;20077;-36
2023/09/11 02:34:52;;;;;;;12.90;11.02;;;;;;;21.19;100.00;101287.97;5093856;28;20101;-37
2023/09/11 02:37:18;;;;;;;11.77;10.57;;;;;;;21.16;100.00;101296.78;5094394;28;20067;-37
2023/09/11 02:39:44;;;;;;;13.18;11.23;;;;;;;21.15;100.00;101283.34;5094392;28;20028;-36
2023/09/11 02:42:09;;;;;;;12.75;11.40;;;;;;;21.14;100.00;101296.28;5093829;28;20111;-37
2023/09/11 02:44:35;;;;;;;12.45;11.15;;;;;;;21.01;100.00;101277.72;5093760;28;20024;-36
2023/09/11 02:47:00;;;;;;;11.80;10.20;;;;;;;21.07;100.00;101290.28;5094045;28;20506;-36
2023/09/11 02:49:25;;;;;;;12.80;11.60;;;;;;;21.05;100.00;101281.53;5093695;28;20445;-37
2023/09/11 02:51:51;;;;;;;15.98;11.70;;;;;;;21.03;100.00;101289.22;5094510;28;20035;-37
2023/09/11 02:54:16;;;;;;;14.80;11.68;;;;;;;20.98;100.00;101286.53;5094205;28;20097;-36
2023/09/11 02:56:41;;;;;;;13.80;11.43;;;;;;;20.93;100.00;101279.16;5093725;28;20082;-37
2023/09/11 02:59:07;;;;;;;13.80;11.35;;;;;;;20.95;100.00;101281.63;5094545;28;20047;-37
2023/09/11 03:01:32;;;;;;;13.23;11.00;;;;;;;20.86;100.00;101270.44;5093438;28;20039;-36
2023/09/11 03:03:58;;;;;;;13.85;11.43;;;;;;;20.93;100.00;101289.31;5094396;28;20027;-37
2023/09/11 03:06:23;;;;;;;12.57;11.27;;;;;;;20.83;100.00;101288.31;5094417;28;20392;-37
2023/09/11 03:08:49;;;;;;;13.23;10.93;;;;;;;20.84;100.00;101286.41;5094411;28;20032;-37
2023/09/11 03:11:14;;;;;;;12.23;9.73;;;;;;;20.92;100.00;101277.50;5093205;28;20057;-37
2023/09/11 03:13:39;;;;;;;12.00;10.80;;;;;;;20.83;100.00;101276.50;5093581;28;20107;-36
2023/09/11 03:16:09;;;;;;;12.05;10.95;;;;;;;20.88;100.00;101270.13;5093126;28;20488;-37
2023/09/11 03:18:34;;;;;;;14.27;10.48;;;;;;;20.87;100.00;101266.56;5093140;28;20040;-37
2023/09/11 03:21:00;;;;;;;12.48;11.15;;;;;;;20.71;100.00;101254.91;5093425;28;20110;-37
2023/09/11 03:23:25;;;;;;;12.13;10.90;;;;;;;20.75;100.00;101263.41;5093146;28;20032;-37
2023/09/11 03:25:50;;;;;;;12.88;10.98;;;;;;;20.73;100.00;101262.84;5093394;28;20035;-38
2023/09/11 03:28:16;;;;;;;12.30;10.77;;;;;;;20.74;100.00;101257.09;5093682;28;20032;-37
2023/09/11 03:30:41;;;;;;;11.73;10.10;;;;;;;20.70;100.00;101250.53;5093601;28;20024;-37
2023/09/11 03:33:07;;;;;;;13.68;10.48;;;;;;;20.71;100.00;101254.09;5092997;28;20028;-37
2023/09/11 03:35:32;;;;;;;11.32;10.20;;;;;;;20.65;100.00;101245.09;5093339;28;20067;-37
2023/09/11 03:37:57;;;;;;;11.48;10.32;;;;;;;20.70;100.00;101247.78;5093508;28;20031;-36
2023/09/11 03:40:23;;;;;;;11.25;9.95;;;;;;;20.68;100.00;101249.97;5093496;28;20038;-36
2023/09/11 03:42:48;;;;;;;11.60;10.40;;;;;;;20.73;100.00;101247.19;5093239;28;20510;-37
2023/09/11 03:45:14;;;;;;;12.30;11.20;;;;;;;20.61;100.00;101254.19;5095357;28;20047;-36
2023/09/11 03:47:39;;;;;;;13.55;10.93;;;;;;;20.55;100.00;101247.94;5097047;28;20059;-36
2023/09/11 03:50:07;;;;;;;10.50;9.50;;;;;;;20.57;100.00;101242.94;5096682;28;20028;-36
2023/09/11 03:52:32;;;;;;;11.73;10.63;;;;;;;20.50;100.00;101242.47;5097815;28;20024;-36
2023/09/11 03:54:57;;;;;;;11.50;10.20;;;;;;;20.55;100.00;101225.94;5096839;28;20099;-36
2023/09/11 03:57:22;;;;;;;11.60;9.88;;;;;;;20.50;100.00;101235.06;5096539;28;20056;-36
2023/09/11 03:59:48;;;;;;;12.45;10.68;;;;;;;20.40;100.00;101220.53;5097418;28;20035;-37
2023/09/11 04:02:13;;;;;;;11.48;10.35;;;;;;;20.46;100.00;101233.13;5097099;28;20028;-37
2023/09/11 04:04:38;;;;;;;11.52;9.75;;;;;;;20.51;100.00;101222.13;5097311;28;20063;-36
2023/09/11 04:07:04;;;;;;;12.52;10.57;;;;;;;20.47;100.00;101226.56;5096670;28;20032;-36
2023/09/11 04:09:32;;;;;;;11.00;10.00;;;;;;;20.38;100.00;101228.25;5096618;28;20059;-36
2023/09/11 04:12:00;;;;;;;14.07;10.45;;;;;;;20.26;100.00;101212.16;5096644;28;20111;-36
2023/09/11 04:14:25;;;;;;;12.00;10.75;;;;;;;20.31;100.00;101220.34;5096523;28;20080;-37
2023/09/11 04:16:50;;;;;;;12.73;10.05;;;;;;;20.37;100.00;101221.13;5096512;28;20083;-36
2023/09/11 04:19:16;;;;;;;11.73;10.07;;;;;;;20.26;100.00;101212.16;5096004;28;20081;-36
2023/09/11 04:21:41;;;;;;;12.13;10.23;;;;;;;20.19;100.00;101206.97;5096734;28;20067;-37
2023/09/11 04:24:12;;;;;;;10.25;9.25;;;;;;;20.22;100.00;101211.91;5096570;28;20024;-37
2023/09/11 04:26:38;;;;;;;10.00;9.00;;;;;;;20.29;100.00;101217.88;5096820;28;20414;-37
2023/09/11 04:29:05;;;;;;;13.07;10.73;;;;;;;20.16;100.00;101213.06;5096794;28;20447;-37
2023/09/11 04:31:30;;;;;;;14.27;10.77;;;;;;;20.08;100.00;101199.94;5096501;28;20388;-37
2023/09/11 04:33:55;;;;;;;11.57;10.32;;;;;;;20.04;100.00;101204.34;5096052;28;20024;-37
2023/09/11 04:36:21;;;;;;;12.18;10.95;;;;;;;20.00;100.00;101190.34;5096374;28;20541;-36
2023/09/11 04:38:46;;;;;;;11.52;9.55;;;;;;;19.97;100.00;101187.38;5095964;28;20464;-37
2023/09/11 04:41:11;;;;;;;12.15;10.77;;;;;;;20.04;100.00;101201.59;5096787;28;20027;-37
2023/09/11 04:43:37;;;;;;;11.70;10.18;;;;;;;20.03;100.00;101208.19;5096567;28;20028;-38
2023/09/11 04:46:02;;;;;;;11.32;10.13;;;;;;;20.00;100.00;101209.56;5096180;28;20035;-36
2023/09/11 04:48:27;;;;;;;9.70;8.77;;;;;;;20.10;100.00;101216.09;5096119;28;20059;-36
2023/09/11 04:50:54;;;;;;;12.02;10.10;;;;;;;20.01;100.00;101210.41;5096304;28;20031;-37
2023/09/11 04:53:19;;;;;;;11.45;10.13;;;;;;;20.05;100.00;101222.44;5096289;28;20042;-36
2023/09/11 04:55:47;;;;;;;11.52;10.23;;;;;;;19.94;100.00;101216.22;5095627;28;20020;-36
2023/09/11 04:58:13;;;;;;;14.73;10.55;;;;;;;19.94;100.00;101216.22;5096058;28;20473;-36
2023/09/11 05:00:40;;;;;;;12.63;10.07;;;;;;;19.91;100.00;101225.03;5095625;28;20024;-36
2023/09/11 05:03:05;;;;;;;10.57;9.55;;;;;;;19.84;100.00;101218.22;5095610;28;20069;-37
2023/09/11 05:05:31;;;;;;;10.27;9.35;;;;;;;19.91;100.00;101215.94;5128336;27;20016;-36
2023/09/11 05:07:56;;;;;;;13.00;10.20;;;;;;;19.84;100.00;101215.47;5095812;28;20042;-37
2023/09/11 05:10:21;;;;;;;13.73;10.32;;;;;;;19.88;100.00;101213.78;5095081;28;20435;-37
2023/09/11 05:12:47;;;;;;;12.15;10.85;;;;;;;19.83;100.00;101220.13;5095900;28;20062;-37
2023/09/11 05:15:13;;;;;;;12.15;9.98;;;;;;;19.85;100.00;101222.59;5094969;28;20023;-37
2023/09/11 05:17:38;;;;;;;11.88;9.50;;;;;;;19.85;100.00;101222.59;5094545;28;20032;-37
2023/09/11 05:20:06;;;;;;;10.98;9.95;;;;;;;19.79;100.00;101225.34;5094592;28;20031;-37
2023/09/11 05:22:32;;;;;;;12.52;9.48;;;;;;;19.89;100.00;101219.00;5095414;28;20032;-37
2023/09/11 05:24:58;;;;;;;14.60;9.85;;;;;;;19.76;100.00;101219.59;5095585;28;20034;-37
2023/09/11 05:27:23;;;;;;;10.73;9.60;;;;;;;19.84;100.00;101215.47;5095310;28;20040;-37
2023/09/11 05:29:49;;;;;;;10.70;9.70;;;;;;;19.93;100.00;101230.22;5094460;28;20425;-37
2023/09/11 05:32:14;;;;;;;16.38;10.05;;;;;;;19.83;100.00;101224.81;5094717;28;20071;-37
2023/09/11 05:34:39;;;;;;;10.57;9.13;;;;;;;19.91;100.00;101222.28;5094755;28;20024;-37
2023/09/11 05:37:05;;;;;;;9.90;8.85;;;;;;;19.92;100.00;101223.09;5094818;28;20410;-37
2023/09/11 05:39:31;;;;;;;9.15;7.90;;;;;;;20.08;100.00;101232.06;5094842;28;20059;-37
2023/09/11 05:41:57;;;;;;;15.05;9.40;;;;;;;19.98;100.00;101221.97;5095089;28;20024;-37
2023/09/11 05:44:22;;;;;;;12.95;8.48;;;;;;;20.08;100.00;101232.88;5094665;28;20023;-37
2023/09/11 05:46:49;;;;;;;10.85;9.00;;;;;;;20.05;100.00;101239.72;5093557;28;20485;-37
2023/09/11 05:49:14;;;;;;;10.90;9.07;;;;;;;20.09;100.00;101244.66;5094700;28;20032;-37
2023/09/11 05:51:40;;;;;;;12.57;8.55;;;;;;;20.12;100.00;101239.44;5095246;28;20024;-37
2023/09/11 05:54:05;;;;;;;13.10;8.55;;;;;;;20.19;100.00;101247.34;5094638;28;20024;-37
2023/09/11 05:56:30;;;;;;;13.95;8.13;;;;;;;20.22;100.00;101239.34;5095370;28;20028;-37
2023/09/11 05:58:56;;;;;;;9.57;7.90;;;;;;;20.35;100.00;101237.91;5094676;28;20125;-37
2023/09/11 06:01:21;;;;;;;11.68;7.75;;;;;;;20.31;100.00;101242.31;5094484;28;20059;-37
2023/09/11 06:03:46;;;;;;;10.27;7.70;;;;;;;20.36;100.00;101238.72;5094046;28;20028;-37
2023/09/11 06:06:12;;;;;;;10.25;7.80;;;;;;;20.38;100.00;101240.06;5094438;28;20024;-37
2023/09/11 06:08:37;;;;;;;11.60;7.35;;;;;;;20.57;100.00;101251.19;5093590;28;20039;-37
2023/09/11 06:11:03;;;;;;;11.77;7.90;;;;;;;20.55;100.00;101262.47;5094240;28;20031;-37
2023/09/11 06:13:28;;;;;;;8.30;7.00;;;;;;;20.68;100.00;101258.22;5094510;28;20106;-37
2023/09/11 06:15:53;;;;;;;12.00;7.13;;;;;;;20.73;100.00;101254.63;5093881;28;20066;-37
2023/09/11 06:18:19;;;;;;;10.35;7.10;;;;;;;20.75;100.00;101244.97;5094325;28;20039;-37
2023/09/11 06:20:44;;;;;;;11.18;7.60;;;;;;;20.82;100.00;101258.38;5094104;28;20036;-37
2023/09/11 06:23:12;;;;;;;10.27;7.00;;;;;;;20.87;100.00;101249.25;5094138;28;20461;-37
2023/09/11 06:25:38;;;;;;;10.93;7.20;;;;;;;20.90;100.00;101248.69;5094008;28;20369;-37
2023/09/11 06:28:03;;;;;;;9.18;6.85;;;;;;;20.86;100.00;101237.44;5094010;28;20155;-37
2023/09/11 06:30:31;;;;;;;10.43;6.38;;;;;;;21.03;100.00;101254.34;5093877;28;20031;-37
2023/09/11 06:32:57;;;;;;;10.82;6.85;;;;;;;21.09;100.00;101263.34;5093960;28;20028;-37
2023/09/11 06:35:22;;;;;;;11.15;7.15;;;;;;;21.13;100.00;101253.41;5093884;28;20040;-37
2023/09/11 06:37:47;;;;;;;8.15;6.10;;;;;;;21.15;100.00;101250.34;5093797;28;20550;-37
2023/09/11 06:40:14;;;;;;;9.75;6.68;;;;;;;21.25;100.00;101262.06;5094339;28;20031;-37
2023/09/11 06:42:39;;;;;;;6.72;6.00;;;;;;;21.38;100.00;101262.50;5093536;28;20120;-37
2023/09/11 06:45:05;;;;;;;10.70;6.05;;;;;;;21.46;100.00;101261.84;5093704;28;20066;-37
2023/09/11 06:47:31;;;;;;;10.23;5.85;;;;;;;21.52;100.00;101271.66;5094304;28;20032;-37
2023/09/11 06:49:56;;;;;;;9.40;6.13;;;;;;;21.62;100.00;101273.47;5093728;28;20031;-37
2023/09/11 06:52:21;;;;;;;10.45;6.05;;;;;;;21.66;100.00;101263.50;5093995;28;20070;-37
2023/09/11 06:54:47;;;;;;;10.70;5.95;;;;;;;21.73;100.00;101266.72;5093392;28;20016;-37
2023/09/11 06:57:13;;;;;;;11.27;6.15;;;;;;;21.76;100.00;101263.38;5093282;28;20063;-37
2023/09/11 06:59:38;;;;;;;10.88;5.32;;;;;;;21.76;100.00;101263.38;5093983;28;20059;-37
2023/09/11 07:02:04;;;;;;;11.27;6.03;;;;;;;21.67;100.00;101257.72;5093929;28;20036;-37
2023/09/11 07:04:31;;;;;;;7.47;5.47;;;;;;;21.74;100.00;101262.84;5093272;28;20027;-37
2023/09/11 07:06:56;;;;;;;10.05;6.38;;;;;;;21.78;100.00;101263.91;5093336;28;20392;-37
2023/09/11 07:09:22;;;;;;;11.23;6.32;;;;;;;21.81;100.00;101257.78;5093457;28;20035;-37
2023/09/11 07:11:49;;;;;;;9.43;6.07;;;;;;;21.83;100.00;101259.16;5093779;28;20098;-37
2023/09/11 07:14:21;;;;;;;9.10;5.90;;;;;;;21.84;100.00;101260.78;5093714;28;20059;-37
2023/09/11 07:16:47;;;;;;;9.68;6.30;;;;;;;21.74;100.00;101241.66;5093825;28;20028;-37
2023/09/11 07:19:12;;;;;;;11.75;6.28;;;;;;;21.81;100.00;101249.53;5094339;28;20028;-37
2023/09/11 07:21:38;;;;;;;8.25;6.32;;;;;;;21.85;100.00;101253.34;5098136;28;20034;-37
2023/09/11 07:24:03;;;;;;;10.43;6.85;;;;;;;21.84;100.00;101240.69;5098040;28;20132;-37
2023/09/11 07:26:29;;;;;;;9.52;6.50;;;;;;;22.02;100.00;101258.34;5097764;28;20380;-37
2023/09/11 07:28:56;;;;;;;8.55;6.82;;;;;;;21.96;100.00;101249.34;5097358;28;20088;-38
2023/09/11 07:31:22;;;;;;;9.70;7.07;;;;;;;22.01;100.00;101249.28;5098220;28;20471;-37
2023/09/11 07:33:48;;;;;;;12.35;6.95;;;;;;;21.98;100.00;101240.78;5096993;28;20063;-37
2023/09/11 07:36:13;;;;;;;10.55;7.03;;;;;;;22.10;100.00;101257.66;5098140;28;20116;-37
2023/09/11 07:38:44;;;;;;;10.98;7.70;;;;;;;22.15;100.00;101256.78;5097444;28;20457;-37
2023/09/11 07:41:13;;;;;;;11.43;7.68;;;;;;;22.11;100.00;101251.09;5097458;28;20024;-37
2023/09/11 07:43:39;;;;;;;10.85;7.40;;;;;;;22.17;100.00;101249.88;5096829;28;20414;-37
2023/09/11 07:46:04;;;;;;;12.18;7.90;;;;;;;22.27;100.00;101265.44;5097045;28;20032;-37
2023/09/11 07:48:29;;;;;;;12.25;8.15;;;;;;;22.32;100.00;101263.41;5097116;28;20071;-37
2023/09/11 07:50:56;;;;;;;9.70;8.18;;;;;;;22.38;100.00;101268.84;5097203;28;20027;-37
2023/09/11 07:53:22;;;;;;;11.82;8.15;;;;;;;22.44;100.00;101273.13;5097300;28;20039;-37
2023/09/11 07:55:48;;;;;;;10.05;7.97;;;;;;;22.53;100.00;101272.16;5097131;28;20020;-37
2023/09/11 07:58:13;;;;;;;12.05;8.23;;;;;;;22.56;100.00;101265.25;5097308;28;20361;-37
2023/09/11 08:00:38;;;;;;;12.82;8.50;;;;;;;22.55;100.00;101255.34;5096792;28;20042;-37
2023/09/11 08:03:04;;;;;;;10.88;7.93;;;;;;;22.69;100.00;101280.97;5096491;28;20038;-37
2023/09/11 08:05:29;;;;;;;9.55;8.07;;;;;;;22.80;100.00;101287.16;5096445;28;20120;-37
2023/09/11 08:07:54;;;;;;;10.73;8.82;;;;;;;22.82;100.00;101271.13;5096744;28;20060;-37
2023/09/11 08:10:20;;;;;;;9.73;8.73;;;;;;;22.96;100.00;101288.53;5096637;28;20024;-37
2023/09/11 08:12:45;;;;;;;14.68;9.15;;;;;;;23.03;100.00;101293.66;5096894;28;20103;-37
2023/09/11 08:15:11;;;;;;;11.05;9.80;;;;;;;23.05;100.00;101291.44;5097070;28;20095;-37
2023/09/11 08:17:36;;;;;;;11.80;9.85;;;;;;;23.12;100.00;101297.34;5096720;28;20448;-37
2023/09/11 08:20:03;;;;;;;12.35;10.05;;;;;;;23.09;100.00;101281.44;5096150;28;20073;-37
2023/09/11 08:22:28;;;;;;;13.70;10.35;;;;;;;23.22;100.00;101285.31;5097019;28;20024;-37
2023/09/11 08:24:53;;;;;;;12.18;9.73;;;;;;;23.27;100.00;101276.91;5096329;28;20581;-37
2023/09/11 08:27:20;;;;;;;13.50;10.27;;;;;;;23.39;100.00;101288.28;5096027;28;20494;-37
2023/09/11 08:29:45;;;;;;;12.68;10.20;;;;;;;23.43;100.00;101282.97;5095985;28;20084;-37
2023/09/11 08:32:11;;;;;;;11.25;10.15;;;;;;;23.49;100.00;101281.75;5096552;28;20114;-37
2023/09/11 08:34:36;;;;;;;15.00;10.15;;;;;;;23.59;100.00;101279.59;5096171;28;20379;-37
2023/09/11 08:37:02;;;;;;;12.20;10.82;;;;;;;23.58;100.00;101274.38;5096418;28;20448;-37
2023/09/11 08:39:27;;;;;;;12.80;9.88;;;;;;;23.72;100.00;101283.50;5095651;28;20493;-37
2023/09/11 08:41:57;;;;;;;15.82;10.93;;;;;;;23.84;100.00;101275.50;5096126;28;20028;-37
2023/09/11 08:44:22;;;;;;;15.60;8.95;;;;;;;23.96;100.00;101276.88;5096177;28;20024;-37
2023/09/11 08:46:49;;;;;;;12.80;9.75;;;;;;;24.06;100.00;101279.41;5096552;28;20036;-37
2023/09/11 08:49:20;;;;;;;11.65;9.68;;;;;;;24.18;100.00;101276.13;5095618;28;20093;-37
2023/09/11 08:51:59;;;;;;;11.13;9.10;;;;;;;24.24;100.00;101267.38;5096671;28;20060;-37
2023/09/11 08:54:32;;;;;;;13.70;9.30;;;;;;;24.38;100.00;101282.00;5095782;28;20388;-37
2023/09/11 08:56:58;;;;;;;11.68;8.40;;;;;;;24.39;100.00;101267.03;5095462;28;20043;-37
2023/09/11 08:59:27;;;;;;;13.55;8.95;;;;;;;24.60;100.00;101280.38;5096005;28;20468;-37
2023/09/11 09:01:52;;;;;;;11.32;8.45;;;;;;;24.67;100.00;101287.09;5095964;28;20023;-37
2023/09/11 09:04:19;;;;;;;13.50;9.10;;;;;;;24.78;100.00;101286.81;5095571;28;20027;-37
2023/09/11 09:06:46;;;;;;;12.93;9.02;;;;;;;24.73;100.00;101267.59;5095337;28;20123;-37
2023/09/11 09:09:12;;;;;;;11.00;8.70;;;;;;;24.89;99.21;101285.44;5095480;28;20035;-36
2023/09/11 09:11:40;;;;;;;12.50;8.80;;;;;;;24.97;99.22;101289.38;5095497;28;20024;-37
2023/09/11 09:14:07;;;;;;;13.73;9.38;;;;;;;25.03;100.00;101277.84;5096160;28;20055;-37
2023/09/11 09:16:32;;;;;;;14.80;8.93;;;;;;;25.14;97.88;101275.66;5095412;28;20077;-37
2023/09/11 09:18:58;;;;;;;11.00;7.95;;;;;;;25.26;98.80;101286.94;5095249;28;20028;-37
2023/09/11 09:21:27;;;;;;;12.02;7.85;;;;;;;25.37;97.91;101279.97;5095569;28;20481;-37
2023/09/11 09:23:53;;;;;;;10.93;7.72;;;;;;;25.39;97.18;101269.41;5095713;28;20456;-37
2023/09/11 09:26:19;;;;;;;13.70;9.00;;;;;;;25.45;97.64;101278.38;5094959;28;20027;-37
2023/09/11 09:28:47;;;;;;;13.07;7.68;;;;;;;25.64;97.18;101280.88;5095192;28;20039;-37
2023/09/11 09:31:23;;;;;;;11.27;8.77;;;;;;;25.76;96.92;101285.81;5095008;28;20456;-37
2023/09/11 09:33:52;;;;;;;11.48;6.97;;;;;;;25.83;94.13;101292.53;5095312;28;20028;-37
2023/09/11 09:36:17;;;;;;;12.02;8.23;;;;;;;25.91;95.17;101288.97;5094665;28;20464;-37
2023/09/11 09:38:43;;;;;;;12.57;8.30;;;;;;;26.00;94.11;101288.13;5094956;28;20049;-37
2023/09/11 09:41:12;;;;;;;11.45;7.25;;;;;;;26.08;92.75;101284.56;5094299;28;20028;-37
2023/09/11 09:43:38;;;;;;;8.68;6.65;;;;;;;26.09;92.85;101275.91;5095179;28;20024;-37
2023/09/11 09:46:22;;;;;;;10.02;7.07;;;;;;;26.29;92.44;101285.53;5094758;28;20028;-37
2023/09/11 09:48:48;;;;;;;10.90;7.40;;;;;;;26.30;88.84;101281.63;5094477;28;20099;-37
2023/09/11 09:51:13;;;;;;;10.48;7.55;;;;;;;26.27;89.93;101278.69;5094654;28;20174;-37
2023/09/11 09:53:41;;;;;;;13.23;7.15;;;;;;;26.40;90.75;101286.00;5095233;28;20085;-37
2023/09/11 09:56:08;;;;;;;7.00;6.15;;;;;;;26.40;87.78;101278.53;5094793;28;20106;-37
2023/09/11 09:58:44;;;;;;;9.90;6.28;;;;;;;26.57;90.50;101272.16;5095417;28;20394;-37
2023/09/11 10:01:17;;;;;;;12.80;6.55;;;;;;;26.66;90.12;101280.50;5094588;28;20030;-37
2023/09/11 10:03:47;;;;;;;12.13;7.18;;;;;;;26.71;88.39;101272.00;5095281;28;20047;-37
2023/09/11 10:06:21;;;;;;;8.13;5.97;;;;;;;26.78;87.48;101277.84;5094355;28;20149;-37
2023/09/11 10:09:04;;;;;;;10.00;6.20;;;;;;;26.81;88.46;101274.41;5094931;28;20389;-37
2023/09/11 10:11:31;;;;;;;11.80;6.70;;;;;;;26.85;86.97;101269.84;5094403;28;20095;-37
2023/09/11 10:13:58;;;;;;;10.30;7.10;;;;;;;26.93;85.66;101284.81;5094009;28;20028;-37
2023/09/11 10:16:24;;;;;;;10.68;6.70;;;;;;;26.94;85.12;101281.72;5093947;28;20024;-37
2023/09/11 10:18:52;;;;;;;8.15;5.40;;;;;;;27.06;85.95;101285.75;5094993;28;20445;-37
2023/09/11 10:21:18;;;;;;;7.93;6.07;;;;;;;27.09;83.16;101265.72;5093869;28;20092;-37
2023/09/11 10:23:44;;;;;;;12.48;5.60;;;;;;;27.12;84.00;101262.25;5094169;28;20071;-37
2023/09/11 10:26:13;;;;;;;9.02;5.60;;;;;;;27.25;83.31;101268.75;5093852;28;20391;-37
2023/09/11 10:28:44;;;;;;;6.55;4.68;;;;;;;27.38;82.48;101271.28;5094036;28;20490;-37
2023/09/11 10:31:25;;;;;;;8.93;5.10;;;;;;;27.44;81.66;101269.94;5093984;28;20499;-37
2023/09/11 10:33:56;;;;;;;7.10;5.20;;;;;;;27.49;79.02;101263.38;5094579;28;20031;-37
2023/09/11 10:36:22;;;;;;;7.03;4.63;;;;;;;27.48;78.96;101255.41;5093900;28;20031;-37
2023/09/11 10:38:52;;;;;;;7.88;4.25;;;;;;;27.61;79.60;101260.69;5094388;28;20046;-37
2023/09/11 10:41:18;;;;;;;5.25;3.85;;;;;;;27.69;76.91;101251.50;5094134;28;20024;-37
2023/09/11 10:43:47;;;;;;;7.88;3.90;;;;;;;27.87;80.09;101248.63;5093869;28;20038;-37
2023/09/11 10:46:21;;;;;;;7.90;3.95;;;;;;;27.89;75.73;101257.44;5094315;28;20020;-37
2023/09/11 10:48:47;;;;;;;8.25;4.47;;;;;;;27.93;74.83;101258.38;5094048;28;20456;-37
2023/09/11 10:51:13;;;;;;;8.80;4.38;;;;;;;27.96;75.09;101257.69;5093699;28;20024;-37
2023/09/11 10:53:40;;;;;;;7.03;3.63;;;;;;;28.07;74.81;101260.91;5094101;28;20087;-37
2023/09/11 10:56:07;;;;;;;7.78;4.55;;;;;;;28.13;73.89;101263.13;5093651;28;20075;-35
2023/09/11 10:58:33;;;;;;;11.25;4.32;;;;;;;28.15;74.36;101254.44;5093951;28;20151;-37
2023/09/11 11:00:58;;;;;;;8.07;3.90;;;;;;;28.16;74.34;101248.56;5093547;28;20048;-35
2023/09/11 11:03:31;;;;;;;8.35;4.60;;;;;;;28.18;74.04;101240.69;5093594;28;20495;-36
2023/09/11 11:06:00;;;;;;;6.90;3.95;;;;;;;28.31;73.61;101244.34;5093221;28;20024;-37
2023/09/11 11:08:26;;;;;;;6.28;4.10;;;;;;;28.37;73.36;101248.56;5093836;28;20024;-37